createdAt,value
2023-12-03T00:00:21.651Z,-1.72
2023-12-03T00:03:11.500Z,-1.78
2023-12-03T00:05:41.250Z,-1.78
2023-12-03T00:08:10.471Z,-1.81
2023-12-03T00:10:39.456Z,-1.82
2023-12-03T00:13:08.327Z,-1.84
2023-12-03T00:15:37.361Z,-1.85
2023-12-03T00:18:06.736Z,-1.83
2023-12-03T00:20:35.459Z,-1.83
2023-12-03T00:23:05.055Z,-1.84
2023-12-03T00:25:33.924Z,-1.82
2023-12-03T00:28:02.830Z,-1.82
2023-12-03T00:30:31.444Z,-1.78
2023-12-03T00:33:00.959Z,-1.76
2023-12-03T00:35:29.783Z,-1.75
2023-12-03T00:37:58.366Z,-1.72
2023-12-03T00:40:27.113Z,-1.72
2023-12-03T00:42:55.881Z,-1.75
2023-12-03T00:45:24.808Z,-1.78
2023-12-03T00:47:53.860Z,-1.77
2023-12-03T00:50:22.515Z,-1.79
2023-12-03T00:52:51.118Z,-1.78
2023-12-03T00:55:21.553Z,-1.80
2023-12-03T00:57:50.620Z,-1.79
2023-12-03T01:00:19.408Z,-1.77
2023-12-03T01:02:48.536Z,-1.77
2023-12-03T01:05:17.362Z,-1.74
2023-12-03T01:07:46.066Z,-1.72
2023-12-03T01:10:15.257Z,-1.71
2023-12-03T01:12:43.897Z,-1.68
2023-12-03T01:15:12.624Z,-1.66
2023-12-03T01:17:41.915Z,-1.65
2023-12-03T01:20:11.987Z,-1.65
2023-12-03T01:22:40.603Z,-1.68
2023-12-03T01:25:10.000Z,-1.72
2023-12-03T01:27:38.974Z,-1.74
2023-12-03T01:30:08.460Z,-1.71
2023-12-03T01:32:37.722Z,-1.73
2023-12-03T01:35:06.728Z,-1.77
2023-12-03T01:37:35.567Z,-1.81
2023-12-03T01:40:05.688Z,-1.82
2023-12-03T01:42:35.445Z,-1.79
2023-12-03T01:45:04.366Z,-1.76
2023-12-03T01:47:35.251Z,-1.72
2023-12-03T01:50:08.886Z,-1.71
2023-12-03T01:52:38.369Z,-1.73
2023-12-03T01:55:08.096Z,-1.68
2023-12-03T01:57:37.126Z,-1.67
2023-12-03T02:00:07.857Z,-1.66
2023-12-03T02:02:42.418Z,-1.64
2023-12-03T02:05:11.671Z,-1.62
2023-12-03T02:07:40.503Z,-1.62
2023-12-03T02:10:10.012Z,-1.67
2023-12-03T02:12:39.127Z,-1.71
2023-12-03T02:15:08.083Z,-1.70
2023-12-03T02:17:37.647Z,-1.68
2023-12-03T02:20:07.233Z,-1.69
2023-12-03T02:22:39.847Z,-1.70
2023-12-03T02:25:08.942Z,-1.73
2023-12-03T02:27:37.562Z,-1.76
2023-12-03T02:30:07.302Z,-1.74
2023-12-03T02:32:36.235Z,-1.72
2023-12-03T02:35:06.330Z,-1.71
2023-12-03T02:37:35.335Z,-1.69
2023-12-03T02:40:04.139Z,-1.65
2023-12-03T02:42:32.834Z,-1.61
2023-12-03T02:45:02.024Z,-1.54
2023-12-03T02:47:31.013Z,-1.53
2023-12-03T02:49:59.790Z,-1.54
2023-12-03T02:52:29.298Z,-1.55
2023-12-03T02:54:57.983Z,-1.52
2023-12-03T02:57:26.602Z,-1.51
2023-12-03T02:59:55.626Z,-1.52
2023-12-03T03:02:24.213Z,-1.54
2023-12-03T03:04:52.824Z,-1.58
2023-12-03T03:07:21.927Z,-1.65
2023-12-03T03:09:50.902Z,-1.66
2023-12-03T03:12:19.606Z,-1.67
2023-12-03T03:14:48.567Z,-1.67
2023-12-03T03:17:17.665Z,-1.64
2023-12-03T03:19:46.328Z,-1.65
2023-12-03T03:22:15.470Z,-1.64
2023-12-03T03:24:44.316Z,-1.63
2023-12-03T03:27:13.397Z,-1.64
2023-12-03T03:29:42.251Z,-1.60
2023-12-03T03:32:11.120Z,-1.53
2023-12-03T03:34:40.459Z,-1.48
2023-12-03T03:37:09.320Z,-1.49
2023-12-03T03:39:38.076Z,-1.47
2023-12-03T03:42:07.228Z,-1.42
2023-12-03T03:44:36.549Z,-1.42
2023-12-03T03:47:05.895Z,-1.44
2023-12-03T03:49:34.876Z,-1.43
2023-12-03T03:52:04.304Z,-1.47
2023-12-03T03:54:33.234Z,-1.51
2023-12-03T03:57:02.355Z,-1.53
2023-12-03T03:59:31.285Z,-1.53
2023-12-03T04:01:59.962Z,-1.57
2023-12-03T04:04:29.060Z,-1.59
2023-12-03T04:06:58.071Z,-1.60
2023-12-03T04:09:26.928Z,-1.58
2023-12-03T04:11:55.688Z,-1.57
2023-12-03T04:14:24.822Z,-1.55
2023-12-03T04:16:53.440Z,-1.54
2023-12-03T04:19:22.173Z,-1.58
2023-12-03T04:21:51.628Z,-1.57
2023-12-03T04:24:20.621Z,-1.57
2023-12-03T04:26:49.290Z,-1.62
2023-12-03T04:29:18.225Z,-1.66
2023-12-03T04:31:48.828Z,-1.69
2023-12-03T04:34:17.446Z,-1.70
2023-12-03T04:36:47.134Z,-1.72
2023-12-03T04:39:15.868Z,-1.72
2023-12-03T04:41:44.561Z,-1.76
2023-12-03T04:44:13.463Z,-1.79
2023-12-03T04:46:42.956Z,-1.80
2023-12-03T04:49:11.746Z,-1.78
2023-12-03T04:51:40.925Z,-1.76
2023-12-03T04:54:09.955Z,-1.73
2023-12-03T04:56:38.497Z,-1.71
2023-12-03T04:59:08.694Z,-1.77
2023-12-03T05:01:37.694Z,-1.82
2023-12-03T05:04:06.902Z,-1.87
2023-12-03T05:06:35.717Z,-1.90
2023-12-03T05:09:04.553Z,-1.88
2023-12-03T05:11:33.187Z,-1.85
2023-12-03T05:14:02.065Z,-1.90
2023-12-03T05:16:30.839Z,-1.94
2023-12-03T05:18:59.665Z,-1.94
2023-12-03T05:21:28.722Z,-1.93
2023-12-03T05:23:57.539Z,-1.91
2023-12-03T05:26:26.404Z,-1.90
2023-12-03T05:28:55.236Z,-1.90
2023-12-03T05:31:24.219Z,-1.94
2023-12-03T05:33:53.276Z,-1.98
2023-12-03T05:36:25.309Z,-1.98
2023-12-03T05:38:54.804Z,-1.95
2023-12-03T05:41:23.393Z,-1.93
2023-12-03T05:43:53.548Z,-1.93
2023-12-03T05:46:22.292Z,-1.96
2023-12-03T05:48:51.120Z,-2.00
2023-12-03T05:51:20.245Z,-2.02
2023-12-03T05:53:48.874Z,-2.08
2023-12-03T05:56:17.904Z,-2.12
2023-12-03T05:58:46.738Z,-2.11
2023-12-03T06:01:25.859Z,-2.06
2023-12-03T06:03:55.258Z,-1.99
2023-12-03T06:06:24.141Z,-1.93
2023-12-03T06:08:53.048Z,-1.85
2023-12-03T06:11:21.809Z,-1.79
2023-12-03T06:13:50.440Z,-1.73
2023-12-03T06:16:21.826Z,-1.70
2023-12-03T06:18:51.260Z,-1.66
2023-12-03T06:21:20.002Z,-1.65
2023-12-03T06:23:48.728Z,-1.66
2023-12-03T06:26:18.000Z,-1.68
2023-12-03T06:28:46.636Z,-1.74
2023-12-03T06:31:16.030Z,-1.82
2023-12-03T06:33:45.637Z,-1.90
2023-12-03T06:36:14.709Z,-1.97
2023-12-03T06:38:43.329Z,-2.01
2023-12-03T06:41:12.592Z,-2.06
2023-12-03T06:43:41.549Z,-2.11
2023-12-03T06:46:10.183Z,-2.12
2023-12-03T06:48:43.502Z,-2.10
2023-12-03T06:51:12.523Z,-2.03
2023-12-03T06:53:41.186Z,-1.95
2023-12-03T06:56:12.180Z,-1.88
2023-12-03T06:58:41.078Z,-1.79
2023-12-03T07:01:10.117Z,-1.70
2023-12-03T07:03:39.202Z,-1.64
2023-12-03T07:06:08.480Z,-1.59
2023-12-03T07:08:37.090Z,-1.54
2023-12-03T07:11:06.266Z,-1.50
2023-12-03T07:13:35.194Z,-1.45
2023-12-03T07:16:03.986Z,-1.41
2023-12-03T07:18:32.952Z,-1.37
2023-12-03T07:21:02.512Z,-1.36
2023-12-03T07:23:31.528Z,-1.34
2023-12-03T07:26:01.024Z,-1.32
2023-12-03T07:28:31.745Z,-1.27
2023-12-03T07:31:00.674Z,-1.22
2023-12-03T07:33:30.192Z,-1.17
2023-12-03T07:35:58.873Z,-1.11
2023-12-03T07:38:28.503Z,-1.04
2023-12-03T07:40:57.858Z,-0.95
2023-12-03T07:43:27.494Z,-0.88
2023-12-03T07:45:56.564Z,-0.83
2023-12-03T07:48:25.460Z,-0.77
2023-12-03T07:50:54.051Z,-0.74
2023-12-03T07:53:23.138Z,-0.72
2023-12-03T07:55:52.456Z,-0.70
2023-12-03T07:58:21.116Z,-0.72
2023-12-03T08:00:49.770Z,-0.74
2023-12-03T08:03:18.566Z,-0.77
2023-12-03T08:05:47.886Z,-0.74
2023-12-03T08:08:16.619Z,-0.70
2023-12-03T08:10:46.517Z,-0.64
2023-12-03T08:13:15.136Z,-0.60
2023-12-03T08:15:43.787Z,-0.56
2023-12-03T08:18:13.023Z,-0.48
2023-12-03T08:20:41.665Z,-0.39
2023-12-03T08:23:10.272Z,-0.28
2023-12-03T08:25:39.243Z,-0.20
2023-12-03T08:28:07.917Z,-0.11
2023-12-03T08:30:36.697Z,-0.00
2023-12-03T08:33:05.960Z,0.16
2023-12-03T08:35:34.831Z,0.35
2023-12-03T08:38:03.511Z,0.48
2023-12-03T08:40:34.335Z,0.58
2023-12-03T08:43:03.354Z,0.66
2023-12-03T08:45:34.082Z,0.72
2023-12-03T08:48:02.978Z,0.75
2023-12-03T08:50:33.471Z,0.79
2023-12-03T08:53:02.282Z,0.83
2023-12-03T08:55:33.875Z,0.92
2023-12-03T08:58:03.858Z,0.92
2023-12-03T09:00:32.369Z,0.95
2023-12-03T09:03:01.090Z,0.98
2023-12-03T09:05:30.647Z,1.05
2023-12-03T09:07:59.552Z,1.16
2023-12-03T09:10:28.261Z,1.29
2023-12-03T09:12:57.766Z,1.49
2023-12-03T09:15:26.396Z,1.65
2023-12-03T09:17:55.214Z,1.77
2023-12-03T09:20:24.205Z,1.84
2023-12-03T09:22:52.825Z,1.94
2023-12-03T09:25:21.558Z,2.00
2023-12-03T09:27:50.480Z,2.06
2023-12-03T09:30:19.598Z,2.12
2023-12-03T09:32:48.621Z,2.18
2023-12-03T09:35:18.252Z,2.24
2023-12-03T09:37:47.198Z,2.25
2023-12-03T09:40:16.665Z,2.27
2023-12-03T09:42:49.254Z,2.28
2023-12-03T09:45:21.074Z,2.34
2023-12-03T09:47:51.765Z,2.39
2023-12-03T09:50:22.086Z,2.43
2023-12-03T09:52:54.124Z,2.45
2023-12-03T09:55:26.131Z,2.48
2023-12-03T09:58:00.355Z,2.52
2023-12-03T10:00:31.004Z,2.51
2023-12-03T10:02:59.943Z,2.57
2023-12-03T10:05:29.198Z,2.65
2023-12-03T10:07:59.029Z,2.69
2023-12-03T10:10:33.694Z,2.74
2023-12-03T10:13:05.518Z,2.71
2023-12-03T10:15:34.188Z,2.68
2023-12-03T10:18:04.313Z,2.74
2023-12-03T10:20:33.390Z,2.77
2023-12-03T10:23:04.108Z,2.79
2023-12-03T10:25:37.800Z,2.83
2023-12-03T10:28:09.108Z,2.81
2023-12-03T10:30:38.967Z,2.83
2023-12-03T10:33:08.316Z,2.70
2023-12-03T10:35:38.122Z,2.65
2023-12-03T10:38:11.101Z,2.60
2023-12-03T10:40:41.344Z,2.50
2023-12-03T10:43:13.672Z,2.34
2023-12-03T10:45:42.658Z,2.22
2023-12-03T10:48:12.298Z,2.09
2023-12-03T10:50:45.412Z,2.06
2023-12-03T10:53:16.638Z,2.02
2023-12-03T10:55:45.373Z,2.01
2023-12-03T10:58:20.672Z,2.00
2023-12-03T11:01:00.450Z,1.97
2023-12-03T11:03:41.639Z,1.91
2023-12-03T11:06:13.768Z,1.86
2023-12-03T11:08:43.476Z,1.88
2023-12-03T11:11:13.618Z,1.89
2023-12-03T11:13:46.939Z,1.88
2023-12-03T11:16:17.105Z,1.86
2023-12-03T11:18:54.020Z,1.86
2023-12-03T11:21:40.545Z,1.79
2023-12-03T11:24:38.552Z,1.73
2023-12-03T11:27:09.776Z,1.73
2023-12-03T11:29:52.967Z,1.75
2023-12-03T11:32:30.594Z,1.74
2023-12-03T11:35:09.492Z,1.70
2023-12-03T11:37:42.901Z,1.66
2023-12-03T11:40:15.455Z,1.63
2023-12-03T11:42:46.348Z,1.59
2023-12-03T11:45:24.820Z,1.55
2023-12-03T11:48:08.957Z,1.45
2023-12-03T11:50:41.694Z,1.38
2023-12-03T11:53:15.197Z,1.33
2023-12-03T11:55:52.035Z,1.25
2023-12-03T11:58:25.097Z,1.13
2023-12-03T12:00:54.510Z,1.07
2023-12-03T12:03:24.964Z,1.04
2023-12-03T12:05:54.148Z,0.94
2023-12-03T12:08:24.360Z,0.86
2023-12-03T12:10:55.280Z,0.79
2023-12-03T12:13:25.377Z,0.86
2023-12-03T12:15:58.536Z,1.01
2023-12-03T12:18:27.748Z,1.22
2023-12-03T12:21:13.152Z,1.39
2023-12-03T12:23:45.105Z,1.51
2023-12-03T12:26:14.703Z,1.58
2023-12-03T12:28:43.657Z,1.63
2023-12-03T12:31:13.586Z,1.69
2023-12-03T12:33:43.788Z,1.73
2023-12-03T12:36:12.785Z,1.80
2023-12-03T12:38:44.858Z,1.87
2023-12-03T12:41:15.069Z,1.99
2023-12-03T12:43:57.295Z,2.10
2023-12-03T12:46:26.159Z,2.22
2023-12-03T12:49:13.906Z,2.27
2023-12-03T12:51:43.586Z,2.28
2023-12-03T12:54:14.797Z,2.25
2023-12-03T12:56:48.149Z,2.22
2023-12-03T12:59:17.834Z,2.20
2023-12-03T13:01:46.828Z,2.13
2023-12-03T13:04:18.818Z,2.06
2023-12-03T13:06:47.849Z,1.93
2023-12-03T13:09:20.080Z,1.87
2023-12-03T13:11:49.576Z,1.80
2023-12-03T13:14:18.245Z,1.76
2023-12-03T13:16:47.619Z,1.66
2023-12-03T13:19:18.636Z,1.65
2023-12-03T13:21:47.772Z,1.62
2023-12-03T13:24:23.352Z,1.63
2023-12-03T13:26:55.432Z,1.60
2023-12-03T13:29:24.118Z,1.59
2023-12-03T13:31:53.203Z,1.60
2023-12-03T13:34:23.406Z,1.60
2023-12-03T13:36:54.262Z,1.56
2023-12-03T13:39:24.642Z,1.49
2023-12-03T13:41:53.763Z,1.38
2023-12-03T13:44:22.458Z,1.28
2023-12-03T13:46:58.057Z,1.23
2023-12-03T13:49:27.120Z,1.19
2023-12-03T13:51:56.357Z,1.18
2023-12-03T13:54:25.392Z,1.20
2023-12-03T13:56:54.205Z,1.16
2023-12-03T13:59:22.811Z,1.10
2023-12-03T14:01:51.589Z,1.05
2023-12-03T14:04:21.885Z,0.99
2023-12-03T14:06:50.577Z,0.92
2023-12-03T14:09:19.660Z,0.85
2023-12-03T14:11:49.483Z,0.80
2023-12-03T14:14:20.641Z,0.80
2023-12-03T14:16:59.201Z,0.81
2023-12-03T14:19:28.246Z,0.85
2023-12-03T14:21:57.241Z,0.87
2023-12-03T14:24:25.920Z,0.85
2023-12-03T14:26:55.501Z,0.80
2023-12-03T14:29:24.418Z,0.78
2023-12-03T14:31:53.159Z,0.76
2023-12-03T14:34:22.185Z,0.73
2023-12-03T14:36:51.567Z,0.73
2023-12-03T14:39:20.235Z,0.70
2023-12-03T14:41:49.283Z,0.66
2023-12-03T14:44:18.732Z,0.63
2023-12-03T14:46:47.464Z,0.58
2023-12-03T14:49:16.385Z,0.54
2023-12-03T14:51:45.664Z,0.52
2023-12-03T14:54:21.811Z,0.55
2023-12-03T14:56:51.428Z,0.57
2023-12-03T14:59:20.213Z,0.57
2023-12-03T15:01:49.046Z,0.57
2023-12-03T15:04:17.804Z,0.53
2023-12-03T15:06:46.621Z,0.54
2023-12-03T15:09:16.584Z,0.60
2023-12-03T15:11:45.197Z,0.61
2023-12-03T15:14:13.844Z,0.58
2023-12-03T15:16:45.016Z,0.52
2023-12-03T15:19:13.727Z,0.43
2023-12-03T15:21:42.396Z,0.36
2023-12-03T15:24:11.390Z,0.31
2023-12-03T15:26:40.023Z,0.25
2023-12-03T15:29:08.702Z,0.22
2023-12-03T15:31:37.731Z,0.15
2023-12-03T15:34:06.381Z,0.09
2023-12-03T15:36:35.284Z,0.06
2023-12-03T15:39:04.639Z,0.07
2023-12-03T15:41:34.001Z,0.10
2023-12-03T15:44:03.044Z,0.12
2023-12-03T15:46:32.302Z,0.12
2023-12-03T15:49:06.103Z,0.14
2023-12-03T15:51:41.753Z,0.16
2023-12-03T15:54:11.647Z,0.19
2023-12-03T15:56:40.825Z,0.24
2023-12-03T15:59:09.579Z,0.24
2023-12-03T16:01:38.236Z,0.24
2023-12-03T16:04:07.374Z,0.21
2023-12-03T16:06:36.869Z,0.21
2023-12-03T16:09:05.936Z,0.23
2023-12-03T16:11:34.915Z,0.19
2023-12-03T16:14:03.935Z,0.14
2023-12-03T16:16:32.619Z,0.11
2023-12-03T16:19:01.652Z,0.10
2023-12-03T16:21:30.609Z,0.10
2023-12-03T16:23:59.261Z,0.10
2023-12-03T16:26:28.028Z,0.08
2023-12-03T16:28:56.876Z,0.11
2023-12-03T16:31:25.642Z,0.13
2023-12-03T16:33:54.412Z,0.17
2023-12-03T16:36:23.506Z,0.18
2023-12-03T16:38:52.150Z,0.22
2023-12-03T16:41:21.553Z,0.23
2023-12-03T16:43:51.152Z,0.21
2023-12-03T16:46:19.718Z,0.20
2023-12-03T16:48:49.870Z,0.15
2023-12-03T16:51:18.973Z,0.12
2023-12-03T16:53:47.641Z,0.13
2023-12-03T16:56:16.679Z,0.12
2023-12-03T16:58:46.074Z,0.11
2023-12-03T17:01:14.737Z,0.09
2023-12-03T17:03:44.307Z,0.10
2023-12-03T17:06:14.449Z,0.10
2023-12-03T17:08:43.019Z,0.06
2023-12-03T17:11:11.770Z,0.01
2023-12-03T17:13:41.053Z,-0.03
2023-12-03T17:16:10.296Z,-0.05
2023-12-03T17:18:39.398Z,-0.06
2023-12-03T17:21:08.626Z,-0.03
2023-12-03T17:23:37.341Z,0.01
2023-12-03T17:26:08.411Z,0.04
2023-12-03T17:28:37.501Z,0.10
2023-12-03T17:31:06.617Z,0.13
2023-12-03T17:33:35.461Z,0.12
2023-12-03T17:36:04.765Z,0.10
2023-12-03T17:38:33.754Z,0.08
2023-12-03T17:41:02.366Z,0.03
2023-12-03T17:43:31.516Z,-0.01
2023-12-03T17:46:01.042Z,-0.06
2023-12-03T17:48:31.369Z,-0.09
2023-12-03T17:51:01.005Z,-0.10
2023-12-03T17:53:30.039Z,-0.09
2023-12-03T17:55:59.550Z,-0.05
2023-12-03T17:58:28.703Z,-0.02
2023-12-03T18:00:58.051Z,-0.02
2023-12-03T18:03:27.161Z,-0.01
2023-12-03T18:05:57.302Z,0.01
2023-12-03T18:08:27.826Z,0.01
2023-12-03T18:10:59.740Z,0.02
2023-12-03T18:13:30.957Z,0.03
2023-12-03T18:16:02.872Z,-0.00
2023-12-03T18:18:33.131Z,-0.03
2023-12-03T18:21:05.398Z,-0.04
2023-12-03T18:23:36.783Z,-0.05
2023-12-03T18:26:08.614Z,-0.08
2023-12-03T18:28:40.562Z,-0.08
2023-12-03T18:31:11.366Z,-0.07
2023-12-03T18:33:44.377Z,-0.05
2023-12-03T18:36:22.128Z,-0.04
2023-12-03T18:38:56.377Z,0.02
2023-12-03T18:41:31.191Z,0.05
2023-12-03T18:44:06.646Z,0.09
2023-12-03T18:46:39.828Z,0.09
2023-12-03T18:49:11.265Z,0.13
2023-12-03T18:51:42.983Z,0.12
2023-12-03T18:54:11.776Z,0.12
2023-12-03T18:56:40.438Z,0.08
2023-12-03T18:59:10.120Z,0.02
2023-12-03T19:01:39.149Z,-0.02
2023-12-03T19:04:09.513Z,-0.04
2023-12-03T19:06:39.008Z,-0.03
2023-12-03T19:09:08.034Z,-0.03
2023-12-03T19:11:36.693Z,-0.04
2023-12-03T19:14:05.531Z,-0.06
2023-12-03T19:16:34.668Z,-0.05
2023-12-03T19:19:03.359Z,-0.04
2023-12-03T19:21:32.420Z,-0.05
2023-12-03T19:24:01.674Z,-0.04
2023-12-03T19:26:30.315Z,-0.05
2023-12-03T19:28:59.290Z,-0.05
2023-12-03T19:31:28.521Z,-0.04
2023-12-03T19:34:03.612Z,-0.04
2023-12-03T19:36:33.006Z,-0.09
2023-12-03T19:39:04.742Z,-0.11
2023-12-03T19:41:33.658Z,-0.12
2023-12-03T19:44:02.781Z,-0.15
2023-12-03T19:46:32.103Z,-0.17
2023-12-03T19:49:01.408Z,-0.21
2023-12-03T19:51:30.149Z,-0.25
2023-12-03T19:54:02.496Z,-0.26
2023-12-03T19:56:32.232Z,-0.24
2023-12-03T19:59:01.670Z,-0.26
2023-12-03T20:01:32.920Z,-0.26
2023-12-03T20:04:02.296Z,-0.26
2023-12-03T20:06:31.112Z,-0.30
2023-12-03T20:09:00.333Z,-0.30
2023-12-03T20:11:31.106Z,-0.35
2023-12-03T20:14:00.026Z,-0.42
2023-12-03T20:16:28.869Z,-0.47
2023-12-03T20:18:57.865Z,-0.48
2023-12-03T20:21:30.530Z,-0.51
2023-12-03T20:24:01.402Z,-0.57
2023-12-03T20:26:30.430Z,-0.61
2023-12-03T20:28:59.528Z,-0.66
2023-12-03T20:31:31.761Z,-0.68
2023-12-03T20:34:03.717Z,-0.67
2023-12-03T20:36:37.703Z,-0.66
2023-12-03T20:39:07.295Z,-0.65
2023-12-03T20:41:35.969Z,-0.65
2023-12-03T20:44:04.859Z,-0.66
2023-12-03T20:46:34.171Z,-0.69
2023-12-03T20:49:03.096Z,-0.69
2023-12-03T20:51:32.202Z,-0.74
2023-12-03T20:54:01.993Z,-0.80
2023-12-03T20:56:30.938Z,-0.92
2023-12-03T20:59:00.187Z,-1.02
2023-12-03T21:01:32.252Z,-1.14
2023-12-03T21:04:01.453Z,-1.30
2023-12-03T21:06:50.700Z,-1.44
2023-12-03T21:09:23.932Z,-1.60
2023-12-03T21:11:53.064Z,-1.77
2023-12-03T21:14:22.169Z,-1.91
2023-12-03T21:16:51.159Z,-2.05
2023-12-03T21:19:20.177Z,-2.16
2023-12-03T21:21:48.837Z,-2.25
2023-12-03T21:24:19.482Z,-2.28
2023-12-03T21:26:48.981Z,-2.30
2023-12-03T21:29:17.630Z,-2.32
2023-12-03T21:31:46.223Z,-2.32
2023-12-03T21:34:15.548Z,-2.32
2023-12-03T21:36:44.272Z,-2.31
2023-12-03T21:39:12.880Z,-2.27
2023-12-03T21:41:44.821Z,-2.19
2023-12-03T21:44:13.384Z,-2.19
2023-12-03T21:46:41.975Z,-2.24
2023-12-03T21:49:11.432Z,-2.26
2023-12-03T21:51:40.206Z,-2.33
2023-12-03T21:54:08.871Z,-2.38
2023-12-03T21:56:38.140Z,-2.45
2023-12-03T21:59:06.856Z,-2.46
2023-12-03T22:01:35.445Z,-2.43
2023-12-03T22:04:04.674Z,-2.44
2023-12-03T22:06:33.832Z,-2.49
2023-12-03T22:09:02.434Z,-2.57
2023-12-03T22:11:31.380Z,-2.62
2023-12-03T22:14:00.003Z,-2.65
2023-12-03T22:16:28.779Z,-2.70
2023-12-03T22:18:57.943Z,-2.72
2023-12-03T22:21:26.646Z,-2.75
2023-12-03T22:23:57.020Z,-2.79
2023-12-03T22:26:29.547Z,-2.83
2023-12-03T22:28:58.206Z,-2.86
2023-12-03T22:31:27.087Z,-2.96
2023-12-03T22:33:56.316Z,-3.07
2023-12-03T22:36:24.971Z,-3.13
2023-12-03T22:38:54.053Z,-3.17
2023-12-03T22:41:23.065Z,-3.26
2023-12-03T22:43:51.772Z,-3.32
2023-12-03T22:46:20.750Z,-3.39
2023-12-03T22:48:50.033Z,-3.43
2023-12-03T22:51:18.720Z,-3.44
2023-12-03T22:53:47.513Z,-3.49
2023-12-03T22:56:16.342Z,-3.52
2023-12-03T22:58:45.003Z,-3.56
2023-12-03T23:01:13.902Z,-3.60
2023-12-03T23:03:42.830Z,-3.63
2023-12-03T23:06:11.787Z,-3.68
2023-12-03T23:08:40.939Z,-3.71
2023-12-03T23:11:09.677Z,-3.73
2023-12-03T23:13:38.372Z,-3.74
2023-12-03T23:16:07.725Z,-3.75
2023-12-03T23:18:36.715Z,-3.71
2023-12-03T23:21:05.665Z,-3.67
2023-12-03T23:23:34.639Z,-3.65
2023-12-03T23:26:03.881Z,-3.57
2023-12-03T23:28:32.470Z,-3.49
2023-12-03T23:31:02.219Z,-3.43
2023-12-03T23:33:31.737Z,-3.41
2023-12-03T23:36:00.485Z,-3.43
2023-12-03T23:38:29.093Z,-3.52
2023-12-03T23:41:00.211Z,-3.67
2023-12-03T23:43:29.240Z,-3.79
2023-12-03T23:45:58.494Z,-3.87
2023-12-03T23:48:27.624Z,-3.89
2023-12-03T23:50:56.462Z,-3.91
2023-12-03T23:53:25.079Z,-3.99
2023-12-03T23:55:54.152Z,-4.05
2023-12-03T23:58:22.718Z,-4.06
